Manly, Iowa
Current Conditions -  °F | °C
As of 12:53 PM on Thursday 30 Oct 2014 (Local Time) from KMCW Reporting Station
Overcast Overcast  
Wind Chill: 50°   Ceiling: 8500
Heat Index: 50°   Visibility: 10mi
Dew Point: 37°   Wind: 0mph
Humidity: 61%   Direction: NA
Pressure: 30.06"   Gusts: NA
Location:  43.29°N, 93.2°W
Report Text: KMCW 301753Z AUTO 00000KT 10SM FEW055 OVC085 10/03 A3006 RMK AO2 SLP184 T01000028 10100 20028 51001
Loading
Personal Weather Stations






























Interactive Weather Map
Tropical Storm Tracking
New forecast layout! Learn more

10-Day Weather Forecast

Advertisements
Track Severe Weather on mobile